Shallotte, North Carolina
Current Conditions -  °F | °C
As of 9:55 AM on Friday 19 Dec 2014 (Local Time) from KSUT Reporting Station
Clear Clear  
Wind Chill: 51°   Ceiling: Unl
Heat Index: 51°   Visibility: 10mi
Dew Point: 35°   Wind: 8mph
Humidity: 54%   Direction: 20°NNE
Pressure: 30.19"   Gusts: NA
Location:  33.97°N, 78.39°W
Report Text: KSUT 191455Z AUTO 02007KT 10SM CLR 10/01 A3019 RMK AO2 T01030014
Loading
Personal Weather Stations






























Interactive Weather Map New forecast layout! Learn more

10-Day Weather Forecast

Advertisements
Track Severe Weather on mobile